Terminal Aerodrome Forecast
Issued by NWS Quad Cities IA IL

Home | Current Version | Previous Version | Text Only | Print | Product List | Glossary On
Versions: 1 2 3 4 5 6 7 8 9 10 11 12 13 14 15 16 17 18 19 20 21 22 23 24 25 26 27 28 29 30 31 32 33
000
FTUS43 KDVN 070520
TAFDBQ
TAF
KDBQ 070520Z 0706/0806 13007KT P6SM BKN100
     FM071500 18015G23KT P6SM SCT050 BKN150
     FM072100 19017G24KT P6SM VCTS BKN050CB PROB30 0721/0724 3SM
      -TSRA BKN030CB
     FM080300 18009KT 6SM BR VCTS BKN050CB=

USA.gov is the U.S. government's official web portal to all federal, state and local government web resources and services.